Wetterdaten: Woche 02.05.11 - 08.05.11 (KW18)
Datum Zeit Temp. I. Temp. A. Boden 5 cm Feuchte A. Sonne Luftdruck Regen Wind Zeit Regen
02.05.2011 00:00 21,9 C 10,8 C 10,2 C 84 % 0 % 1004 hPa 0,0 l/m 0,0 km/h (0 Bft) 0,00 h
02.05.2011 01:00 21,8 C 10,1 C 9,6 C 85 % 0 % 1004 hPa 0,0 l/m 0,0 km/h (0 Bft) 0,00 h
02.05.2011 02:00 21,8 C 9,2 C 9,4 C 86 % 0 % 1003 hPa 0,0 l/m 0,0 km/h (0 Bft) 0,00 h
02.05.2011 03:00 21,7 C 8,5 C 9,1 C 87 % 0 % 1003 hPa 0,0 l/m 0,0 km/h (0 Bft) 0,00 h
02.05.2011 04:00 21,9 C 7,9 C 8,7 C 87 % 0 % 1003 hPa 0,0 l/m 0,0 km/h (0 Bft) 0,00 h
02.05.2011 05:00 21,2 C 7,3 C 8,4 C 86 % 0 % 1003 hPa 0,0 l/m 0,0 km/h (0 Bft) 0,00 h
02.05.2011 06:00 21,7 C 6,9 C 8,6 C 88 % 0 % 1003 hPa 0,0 l/m 0,3 km/h (0 Bft) 0,00 h
02.05.2011 07:00 20,6 C 7,1 C 8,9 C 95 % 0 % 1003 hPa 0,0 l/m 3,7 km/h (1 Bft) 0,00 h
02.05.2011 08:00 21,7 C 9,5 C 11,0 C 94 % 0 % 1003 hPa 0,0 l/m 13,0 km/h (3 Bft) 0,00 h
02.05.2011 09:00 21,7 C 11,4 C 12,7 C 78 % 0 % 1003 hPa 0,0 l/m 18,1 km/h (3 Bft) 0,00 h
02.05.2011 10:00 21,6 C 13,1 C 14,4 C 68 % 0 % 1002 hPa 0,0 l/m 16,3 km/h (3 Bft) 0,00 h
02.05.2011 11:00 21,7 C 15,0 C 16,8 C 53 % 0 % 1002 hPa 0,0 l/m 18,3 km/h (3 Bft) 0,00 h
02.05.2011 12:00 21,6 C 16,1 C 17,0 C 44 % 0 % 1001 hPa 0,0 l/m 19,5 km/h (3 Bft) 0,00 h
02.05.2011 13:00 21,6 C 16,9 C 16,6 C 37 % 0 % 1001 hPa 0,0 l/m 16,2 km/h (3 Bft) 0,00 h
02.05.2011 14:00 21,6 C 17,5 C 17,3 C 32 % 0 % 1000 hPa 0,0 l/m 15,7 km/h (3 Bft) 0,00 h
02.05.2011 15:00 22,0 C 17,9 C 18,8 C 31 % 0 % 999 hPa 0,0 l/m 12,8 km/h (3 Bft) 0,00 h
02.05.2011 16:00 21,5 C 17,9 C 17,1 C 33 % 0 % 999 hPa 0,0 l/m 10,2 km/h (2 Bft) 0,00 h
02.05.2011 17:00 21,8 C 18,0 C 17,3 C 32 % 0 % 998 hPa 0,0 l/m 13,4 km/h (3 Bft) 0,00 h
02.05.2011 18:00 22,0 C 17,3 C 15,5 C 38 % 0 % 998 hPa 0,0 l/m 11,1 km/h (2 Bft) 0,00 h
02.05.2011 19:00 21,9 C 16,5 C 14,8 C 43 % 0 % 998 hPa 0,0 l/m 10,8 km/h (2 Bft) 0,00 h
02.05.2011 20:00 21,8 C 15,2 C 13,5 C 47 % 0 % 998 hPa 0,0 l/m 10,6 km/h (2 Bft) 0,00 h
02.05.2011 21:00 21,9 C 14,1 C 12,6 C 50 % 0 % 999 hPa 0,0 l/m 2,9 km/h (1 Bft) 0,00 h
02.05.2011 22:00 21,8 C 13,2 C 11,9 C 53 % 0 % 999 hPa 0,0 l/m 1,4 km/h (1 Bft) 0,00 h
02.05.2011 23:00 21,7 C 12,4 C 11,4 C 59 % 0 % 999 hPa 0,0 l/m 5,9 km/h (2 Bft) 0,00 h
03.05.2011 00:00 21,6 C 11,8 C 11,4 C 66 % 0 % 998 hPa 0,0 l/m 4,1 km/h (1 Bft) 0,00 h
03.05.2011 01:00 21,6 C 10,9 C 10,7 C 70 % 0 % 998 hPa 0,0 l/m 5,3 km/h (1 Bft) 0,00 h
03.05.2011 02:00 21,5 C 10,9 C 11,1 C 69 % 0 % 997 hPa 0,0 l/m 0,9 km/h (0 Bft) 0,00 h
03.05.2011 03:00 21,5 C 10,5 C 10,9 C 70 % 0 % 997 hPa 0,0 l/m 0,0 km/h (0 Bft) 0,00 h
03.05.2011 04:00 21,6 C 10,1 C 10,6 C 72 % 0 % 996 hPa 0,0 l/m 0,8 km/h (0 Bft) 0,00 h
03.05.2011 05:00 21,7 C 10,0 C 10,7 C 73 % 0 % 996 hPa 0,0 l/m 0,0 km/h (0 Bft) 0,00 h
03.05.2011 06:00 21,9 C 9,8 C 10,7 C 78 % 0 % 996 hPa 0,0 l/m 0,9 km/h (0 Bft) 0,50 h
03.05.2011 07:00 21,7 C 9,1 C 10,2 C 92 % 0 % 998 hPa 2,1 l/m 10,4 km/h (2 Bft) 1,00 h
03.05.2011 08:00 21,8 C 8,3 C 9,8 C 93 % 0 % 999 hPa 2,7 l/m 1,6 km/h (1 Bft) 1,00 h
03.05.2011 09:00 21,7 C 8,1 C 10,1 C 97 % 0 % 1000 hPa 1,0 l/m 6,9 km/h (2 Bft) 1,00 h
03.05.2011 10:00 21,7 C 7,7 C 9,7 C 97 % 0 % 1002 hPa 0,3 l/m 24,6 km/h (4 Bft) 0,40 h
03.05.2011 11:00 21,7 C 7,4 C 9,6 C 95 % 0 % 1003 hPa 0,0 l/m 22,5 km/h (4 Bft) 0,00 h
03.05.2011 12:00 21,7 C 8,0 C 10,0 C 91 % 0 % 1004 hPa 0,0 l/m 27,6 km/h (4 Bft) 0,00 h
03.05.2011 13:00 21,7 C 9,5 C 10,8 C 79 % 0 % 1004 hPa 0,0 l/m 26,1 km/h (4 Bft) 0,00 h
03.05.2011 14:00 21,8 C 8,6 C 10,1 C 78 % 0 % 1005 hPa 0,0 l/m 20,6 km/h (4 Bft) 0,00 h
03.05.2011 15:00 21,8 C 9,0 C 11,5 C 79 % 0 % 1006 hPa 0,0 l/m 10,9 km/h (2 Bft) 0,00 h
03.05.2011 16:00 22,0 C 9,5 C 12,5 C 74 % 0 % 1006 hPa 0,0 l/m 19,2 km/h (3 Bft) 0,00 h
03.05.2011 17:00 22,2 C 9,3 C 12,2 C 71 % 0 % 1007 hPa 0,0 l/m 19,8 km/h (3 Bft) 0,00 h
03.05.2011 18:00 22,2 C 8,4 C 10,8 C 71 % 0 % 1008 hPa 0,0 l/m 0,4 km/h (0 Bft) 0,00 h
03.05.2011 19:00 22,3 C 7,0 C 9,1 C 71 % 0 % 1009 hPa 0,0 l/m 0,5 km/h (0 Bft) 0,00 h
03.05.2011 20:00 22,4 C 6,1 C 8,8 C 71 % 0 % 1010 hPa 0,0 l/m 0,2 km/h (0 Bft) 0,00 h
03.05.2011 21:00 22,5 C 5,7 C 8,6 C 71 % 0 % 1011 hPa 0,0 l/m 0,1 km/h (0 Bft) 0,00 h
03.05.2011 22:00 22,2 C 5,0 C 8,2 C 73 % 0 % 1011 hPa 0,0 l/m 0,0 km/h (0 Bft) 0,00 h
03.05.2011 23:00 22,0 C 4,2 C 8,1 C 74 % 0 % 1011 hPa 0,0 l/m 0,0 km/h (0 Bft) 0,00 h
04.05.2011 00:00 22,0 C 3,4 C 7,7 C 76 % 0 % 1011 hPa 0,0 l/m 0,0 km/h (0 Bft) 0,00 h
04.05.2011 01:00 21,9 C 2,6 C 7,0 C 78 % 0 % 1011 hPa 0,0 l/m 0,0 km/h (0 Bft) 0,00 h
04.05.2011 02:00 21,9 C 1,6 C 6,8 C 81 % 0 % 1011 hPa 0,0 l/m 0,0 km/h (0 Bft) 0,00 h
04.05.2011 03:00 21,8 C 1,3 C 6,5 C 83 % 0 % 1011 hPa 0,0 l/m 0,0 km/h (0 Bft) 0,00 h
04.05.2011 04:00 22,0 C 1,1 C 6,5 C 83 % 0 % 1011 hPa 0,0 l/m 0,0 km/h (0 Bft) 0,00 h
04.05.2011 05:00 21,0 C 0,8 C 6,4 C 84 % 0 % 1011 hPa 0,0 l/m 0,0 km/h (0 Bft) 0,00 h
04.05.2011 06:00 21,9 C 0,8 C 6,4 C 84 % 0 % 1012 hPa 0,0 l/m 0,0 km/h (0 Bft) 0,00 h
04.05.2011 07:00 21,1 C 2,2 C 6,9 C 84 % 0 % 1012 hPa 0,0 l/m 0,0 km/h (0 Bft) 0,00 h
04.05.2011 08:00 21,8 C 4,7 C 8,6 C 75 % 0 % 1012 hPa 0,0 l/m 0,5 km/h (0 Bft) 0,00 h
04.05.2011 09:00 21,7 C 6,5 C 9,4 C 69 % 0 % 1013 hPa 0,0 l/m 1,0 km/h (0 Bft) 0,00 h
04.05.2011 10:00 21,6 C 7,8 C 10,0 C 62 % 0 % 1013 hPa 0,0 l/m 2,7 km/h (1 Bft) 0,00 h
04.05.2011 11:00 21,6 C 9,2 C 10,6 C 54 % 0 % 1013 hPa 0,0 l/m 4,2 km/h (1 Bft) 0,00 h
04.05.2011 12:00 21,6 C 9,9 C 10,8 C 47 % 0 % 1013 hPa 0,0 l/m 5,6 km/h (1 Bft) 0,00 h
04.05.2011 13:00 21,6 C 11,1 C 10,2 C 42 % 0 % 1012 hPa 0,0 l/m 5,0 km/h (1 Bft) 0,00 h
04.05.2011 14:00 21,7 C 11,6 C 12,6 C 36 % 0 % 1012 hPa 0,0 l/m 8,6 km/h (2 Bft) 0,00 h
04.05.2011 15:00 21,8 C 12,1 C 14,8 C 31 % 0 % 1012 hPa 0,0 l/m 12,0 km/h (2 Bft) 0,00 h
04.05.2011 16:00 21,8 C 12,3 C 14,4 C 35 % 0 % 1012 hPa 0,0 l/m 15,3 km/h (3 Bft) 0,00 h
04.05.2011 17:00 22,1 C 12,2 C 13,7 C 28 % 0 % 1012 hPa 0,0 l/m 18,2 km/h (3 Bft) 0,00 h
04.05.2011 18:00 22,0 C 11,6 C 12,4 C 31 % 0 % 1013 hPa 0,0 l/m 18,3 km/h (3 Bft) 0,00 h
04.05.2011 19:00 20,5 C 10,7 C 10,8 C 36 % 0 % 1013 hPa 0,0 l/m 15,2 km/h (3 Bft) 0,00 h
04.05.2011 20:00 21,8 C 9,0 C 9,5 C 44 % 0 % 1014 hPa 0,0 l/m 5,5 km/h (1 Bft) 0,00 h
04.05.2011 21:00 21,8 C 7,4 C 8,5 C 49 % 0 % 1014 hPa 0,0 l/m 4,5 km/h (1 Bft) 0,00 h
04.05.2011 22:00 21,6 C 6,8 C 8,4 C 51 % 0 % 1015 hPa 0,0 l/m 2,2 km/h (1 Bft) 0,00 h
04.05.2011 23:00 21,5 C 6,2 C 8,2 C 53 % 0 % 1015 hPa 0,0 l/m 0,0 km/h (0 Bft) 0,00 h
05.05.2011 00:00 21,4 C 5,5 C 7,6 C 55 % 0 % 1015 hPa 0,0 l/m 0,0 km/h (0 Bft) 0,00 h
05.05.2011 01:00 21,4 C 4,7 C 7,4 C 59 % 0 % 1016 hPa 0,0 l/m 0,0 km/h (0 Bft) 0,00 h
05.05.2011 02:00 21,4 C 3,7 C 6,8 C 64 % 0 % 1016 hPa 0,0 l/m 0,0 km/h (0 Bft) 0,00 h
05.05.2011 03:00 21,3 C 3,0 C 6,8 C 68 % 0 % 1016 hPa 0,0 l/m 0,0 km/h (0 Bft) 0,00 h
05.05.2011 04:00 21,5 C 2,5 C 6,5 C 71 % 0 % 1016 hPa 0,0 l/m 0,0 km/h (0 Bft) 0,00 h
05.05.2011 05:00 19,9 C 2,2 C 6,3 C 71 % 0 % 1017 hPa 0,0 l/m 0,0 km/h (0 Bft) 0,00 h
05.05.2011 06:00 21,2 C 1,9 C 6,4 C 74 % 0 % 1017 hPa 0,0 l/m 0,0 km/h (0 Bft) 0,00 h
05.05.2011 07:00 21,5 C 3,3 C 6,6 C 75 % 0 % 1017 hPa 0,0 l/m 1,0 km/h (0 Bft) 0,00 h
05.05.2011 08:00 21,5 C 4,8 C 7,8 C 79 % 0 % 1018 hPa 0,0 l/m 2,8 km/h (1 Bft) 0,00 h
05.05.2011 09:00 21,5 C 7,5 C 9,4 C 67 % 0 % 1018 hPa 0,0 l/m 2,8 km/h (1 Bft) 0,00 h
05.05.2011 10:00 21,6 C 9,7 C 10,7 C 56 % 0 % 1018 hPa 0,0 l/m 4,4 km/h (1 Bft) 0,00 h
05.05.2011 11:00 21,5 C 11,7 C 12,0 C 50 % 0 % 1018 hPa 0,0 l/m 3,7 km/h (1 Bft) 0,00 h
05.05.2011 12:00 21,5 C 13,0 C 12,1 C 43 % 0 % 1018 hPa 0,0 l/m 9,9 km/h (2 Bft) 0,00 h
05.05.2011 13:00 21,1 C 13,7 C 11,8 C 39 % 0 % 1018 hPa 0,0 l/m 8,7 km/h (2 Bft) 0,00 h
05.05.2011 14:00 21,1 C 14,7 C 14,9 C 36 % 0 % 1018 hPa 0,0 l/m 7,0 km/h (2 Bft) 0,00 h
05.05.2011 15:00 21,4 C 15,0 C 16,3 C 32 % 0 % 1018 hPa 0,0 l/m 5,9 km/h (2 Bft) 0,00 h
05.05.2011 16:00 21,4 C 14,8 C 16,0 C 29 % 0 % 1017 hPa 0,0 l/m 3,9 km/h (1 Bft) 0,00 h
05.05.2011 17:00 21,4 C 14,8 C 15,8 C 30 % 0 % 1017 hPa 0,0 l/m 3,5 km/h (1 Bft) 0,00 h
05.05.2011 18:00 20,5 C 14,4 C 14,5 C 32 % 0 % 1017 hPa 0,0 l/m 0,2 km/h (0 Bft) 0,00 h
05.05.2011 19:00 21,3 C 13,8 C 12,9 C 33 % 0 % 1017 hPa 0,0 l/m 0,2 km/h (0 Bft) 0,00 h
05.05.2011 20:00 21,5 C 12,7 C 11,5 C 36 % 0 % 1017 hPa 0,0 l/m 0,7 km/h (0 Bft) 0,00 h
05.05.2011 21:00 21,4 C 11,4 C 10,1 C 40 % 0 % 1018 hPa 0,0 l/m 0,1 km/h (0 Bft) 0,00 h
05.05.2011 22:00 21,3 C 9,9 C 9,4 C 46 % 0 % 1018 hPa 0,0 l/m 1,2 km/h (1 Bft) 0,00 h
05.05.2011 23:00 21,2 C 8,9 C 9,1 C 52 % 0 % 1018 hPa 0,0 l/m 1,6 km/h (1 Bft) 0,00 h
06.05.2011 00:00 21,2 C 7,9 C 8,7 C 55 % 0 % 1018 hPa 0,0 l/m 0,1 km/h (0 Bft) 0,00 h
06.05.2011 01:00 21,1 C 7,0 C 8,4 C 58 % 0 % 1018 hPa 0,0 l/m 0,0 km/h (0 Bft) 0,00 h
06.05.2011 02:00 21,1 C 6,4 C 8,0 C 60 % 0 % 1018 hPa 0,0 l/m 0,0 km/h (0 Bft) 0,00 h
06.05.2011 03:00 21,0 C 5,8 C 7,7 C 63 % 0 % 1018 hPa 0,0 l/m 0,0 km/h (0 Bft) 0,00 h
06.05.2011 04:00 21,2 C 5,3 C 7,4 C 63 % 0 % 1018 hPa 0,0 l/m 0,0 km/h (0 Bft) 0,00 h
06.05.2011 05:00 20,0 C 5,0 C 7,1 C 64 % 0 % 1018 hPa 0,0 l/m 0,0 km/h (0 Bft) 0,00 h
06.05.2011 06:00 20,9 C 5,0 C 7,1 C 64 % 0 % 1018 hPa 0,0 l/m 0,5 km/h (0 Bft) 0,00 h
06.05.2011 07:00 21,1 C 6,5 C 7,2 C 64 % 0 % 1019 hPa 0,0 l/m 3,1 km/h (1 Bft) 0,00 h
06.05.2011 08:00 21,3 C 8,5 C 9,8 C 59 % 0 % 1019 hPa 0,0 l/m 4,6 km/h (1 Bft) 0,00 h
06.05.2011 09:00 21,2 C 11,0 C 11,4 C 50 % 0 % 1019 hPa 0,0 l/m 10,2 km/h (2 Bft) 0,00 h
06.05.2011 10:00 21,2 C 13,4 C 13,2 C 43 % 0 % 1018 hPa 0,0 l/m 15,3 km/h (3 Bft) 0,00 h
06.05.2011 11:00 21,1 C 14,8 C 15,0 C 36 % 0 % 1018 hPa 0,0 l/m 16,8 km/h (3 Bft) 0,00 h
06.05.2011 12:00 21,1 C 16,3 C 16,1 C 33 % 0 % 1018 hPa 0,0 l/m 15,3 km/h (3 Bft) 0,00 h
06.05.2011 13:00 21,3 C 17,5 C 15,8 C 28 % 0 % 1017 hPa 0,0 l/m 12,3 km/h (3 Bft) 0,00 h
06.05.2011 14:00 21,5 C 18,5 C 17,3 C 20 % 0 % 1017 hPa 0,0 l/m 14,0 km/h (3 Bft) 0,00 h
06.05.2011 15:00 21,3 C 19,2 C 18,6 C 20 % 0 % 1017 hPa 0,0 l/m 11,7 km/h (2 Bft) 0,00 h
06.05.2011 16:00 21,2 C 19,6 C 18,3 C 20 % 0 % 1016 hPa 0,0 l/m 11,3 km/h (2 Bft) 0,00 h
06.05.2011 17:00 21,3 C 19,9 C 17,6 C 20 % 0 % 1016 hPa 0,0 l/m 11,2 km/h (2 Bft) 0,00 h
06.05.2011 18:00 21,5 C 19,5 C 16,7 C 20 % 0 % 1016 hPa 0,0 l/m 8,8 km/h (2 Bft) 0,00 h
06.05.2011 19:00 21,4 C 18,4 C 14,9 C 20 % 0 % 1016 hPa 0,0 l/m 6,9 km/h (2 Bft) 0,00 h
06.05.2011 20:00 21,4 C 16,9 C 12,8 C 20 % 0 % 1016 hPa 0,0 l/m 5,5 km/h (1 Bft) 0,00 h
06.05.2011 21:00 21,6 C 15,3 C 11,4 C 20 % 0 % 1016 hPa 0,0 l/m 4,2 km/h (1 Bft) 0,00 h
06.05.2011 22:00 21,6 C 14,0 C 10,9 C 33 % 0 % 1016 hPa 0,0 l/m 5,1 km/h (1 Bft) 0,00 h
06.05.2011 23:00 21,4 C 12,7 C 10,2 C 39 % 0 % 1016 hPa 0,0 l/m 0,2 km/h (0 Bft) 0,00 h
07.05.2011 00:00 21,3 C 11,6 C 9,5 C 41 % 0 % 1017 hPa 0,0 l/m 0,0 km/h (0 Bft) 0,00 h
07.05.2011 01:00 21,2 C 10,7 C 9,0 C 43 % 0 % 1016 hPa 0,0 l/m 0,0 km/h (0 Bft) 0,00 h
07.05.2011 02:00 21,1 C 10,0 C 8,8 C 47 % 0 % 1016 hPa 0,0 l/m 0,0 km/h (0 Bft) 0,00 h
07.05.2011 03:00 21,0 C 9,2 C 8,5 C 51 % 0 % 1016 hPa 0,0 l/m 0,0 km/h (0 Bft) 0,00 h
07.05.2011 04:00 21,2 C 8,3 C 8,2 C 55 % 0 % 1016 hPa 0,0 l/m 0,0 km/h (0 Bft) 0,00 h
07.05.2011 05:00 21,4 C 7,8 C 7,8 C 57 % 0 % 1017 hPa 0,0 l/m 0,0 km/h (0 Bft) 0,00 h
07.05.2011 06:00 21,5 C 7,3 C 7,9 C 61 % 0 % 1017 hPa 0,0 l/m 0,0 km/h (0 Bft) 0,00 h
07.05.2011 07:00 21,7 C 8,9 C 8,6 C 61 % 0 % 1017 hPa 0,0 l/m 2,8 km/h (1 Bft) 0,00 h
07.05.2011 08:00 21,3 C 11,0 C 11,6 C 59 % 0 % 1017 hPa 0,0 l/m 9,2 km/h (2 Bft) 0,00 h
07.05.2011 09:00 20,4 C 13,4 C 13,8 C 52 % 0 % 1017 hPa 0,0 l/m 10,0 km/h (2 Bft) 0,00 h
07.05.2011 10:00 20,5 C 15,8 C 15,5 C 44 % 0 % 1017 hPa 0,0 l/m 9,8 km/h (2 Bft) 0,00 h
07.05.2011 11:00 20,8 C 17,9 C 17,9 C 37 % 0 % 1017 hPa 0,0 l/m 11,5 km/h (2 Bft) 0,00 h
07.05.2011 12:00 21,2 C 19,8 C 18,9 C 25 % 0 % 1017 hPa 0,0 l/m 13,3 km/h (3 Bft) 0,00 h
07.05.2011 13:00 21,1 C 20,9 C 18,7 C 20 % 0 % 1016 hPa 0,0 l/m 15,2 km/h (3 Bft) 0,00 h
07.05.2011 14:00 21,3 C 21,7 C 19,9 C 20 % 0 % 1016 hPa 0,0 l/m 14,3 km/h (3 Bft) 0,00 h
07.05.2011 15:00 21,6 C 22,3 C 21,3 C 20 % 0 % 1015 hPa 0,0 l/m 13,3 km/h (3 Bft) 0,00 h
07.05.2011 16:00 21,8 C 22,6 C 21,0 C 20 % 0 % 1015 hPa 0,0 l/m 13,5 km/h (3 Bft) 0,00 h
07.05.2011 17:00 22,0 C 22,7 C 20,2 C 21 % 0 % 1014 hPa 0,0 l/m 12,7 km/h (3 Bft) 0,00 h
07.05.2011 18:00 21,9 C 22,1 C 18,6 C 20 % 0 % 1014 hPa 0,0 l/m 11,7 km/h (2 Bft) 0,00 h
07.05.2011 19:00 21,7 C 21,0 C 17,5 C 20 % 0 % 1014 hPa 0,0 l/m 11,4 km/h (2 Bft) 0,00 h
07.05.2011 20:00 21,6 C 19,1 C 15,3 C 20 % 0 % 1014 hPa 0,0 l/m 7,2 km/h (2 Bft) 0,00 h
07.05.2011 21:00 21,6 C 17,1 C 13,3 C 23 % 0 % 1015 hPa 0,0 l/m 2,9 km/h (1 Bft) 0,00 h
07.05.2011 22:00 21,5 C 15,8 C 11,8 C 29 % 0 % 1015 hPa 0,0 l/m 1,6 km/h (1 Bft) 0,00 h
07.05.2011 23:00 21,4 C 13,9 C 11,1 C 36 % 0 % 1015 hPa 0,0 l/m 0,9 km/h (0 Bft) 0,00 h
08.05.2011 00:00 21,3 C 13,0 C 10,6 C 40 % 0 % 1015 hPa 0,0 l/m 0,9 km/h (0 Bft) 0,00 h
08.05.2011 01:00 21,2 C 13,0 C 10,4 C 42 % 0 % 1015 hPa 0,0 l/m 2,6 km/h (1 Bft) 0,00 h
08.05.2011 02:00 21,2 C 12,8 C 10,8 C 43 % 0 % 1015 hPa 0,0 l/m 3,9 km/h (1 Bft) 0,00 h
08.05.2011 03:00 21,4 C 11,8 C 10,0 C 44 % 0 % 1015 hPa 0,0 l/m 0,4 km/h (0 Bft) 0,00 h
08.05.2011 04:00 21,4 C 10,7 C 9,3 C 46 % 0 % 1015 hPa 0,0 l/m 0,4 km/h (0 Bft) 0,00 h
08.05.2011 05:00 21,2 C 9,9 C 8,9 C 47 % 0 % 1015 hPa 0,0 l/m 0,1 km/h (0 Bft) 0,00 h
08.05.2011 06:00 21,2 C 9,6 C 8,8 C 50 % 0 % 1015 hPa 0,0 l/m 0,0 km/h (0 Bft) 0,00 h
08.05.2011 07:00 21,0 C 11,1 C 9,6 C 50 % 0 % 1015 hPa 0,0 l/m 0,0 km/h (0 Bft) 0,00 h
08.05.2011 08:00 21,0 C 14,1 C 12,6 C 43 % 0 % 1015 hPa 0,0 l/m 0,5 km/h (0 Bft) 0,00 h
08.05.2011 09:00 20,1 C 16,0 C 14,7 C 34 % 0 % 1015 hPa 0,0 l/m 5,4 km/h (1 Bft) 0,00 h
08.05.2011 10:00 20,8 C 17,2 C 16,1 C 31 % 0 % 1015 hPa 0,0 l/m 4,5 km/h (1 Bft) 0,00 h
08.05.2011 11:00 20,9 C 18,8 C 17,4 C 31 % 0 % 1015 hPa 0,0 l/m 3,4 km/h (1 Bft) 0,00 h
08.05.2011 12:00 21,0 C 20,2 C 17,1 C 33 % 0 % 1015 hPa 0,0 l/m 5,2 km/h (1 Bft) 0,00 h
08.05.2011 13:00 21,0 C 20,5 C 16,9 C 35 % 0 % 1015 hPa 0,0 l/m 4,0 km/h (1 Bft) 0,00 h
08.05.2011 14:00 21,0 C 18,8 C 16,2 C 40 % 0 % 1016 hPa 0,0 l/m 20,8 km/h (4 Bft) 0,00 h
08.05.2011 15:00 21,0 C 18,2 C 16,2 C 43 % 0 % 1016 hPa 0,0 l/m 10,6 km/h (2 Bft) 0,00 h
08.05.2011 16:00 21,0 C 19,1 C 18,5 C 42 % 0 % 1016 hPa 0,0 l/m 12,9 km/h (3 Bft) 0,00 h
08.05.2011 17:00 21,0 C 19,4 C 18,1 C 36 % 0 % 1017 hPa 0,0 l/m 16,8 km/h (3 Bft) 0,00 h
08.05.2011 18:00 21,1 C 18,7 C 16,8 C 41 % 0 % 1017 hPa 0,0 l/m 15,0 km/h (3 Bft) 0,00 h
08.05.2011 19:00 21,3 C 17,5 C 15,6 C 43 % 0 % 1018 hPa 0,0 l/m 16,8 km/h (3 Bft) 0,00 h
08.05.2011 20:00 21,2 C 15,7 C 14,1 C 47 % 0 % 1019 hPa 0,0 l/m 20,1 km/h (4 Bft) 0,00 h
08.05.2011 21:00 21,2 C 13,8 C 12,7 C 49 % 0 % 1020 hPa 0,0 l/m 16,5 km/h (3 Bft) 0,00 h
08.05.2011 22:00 21,1 C 12,6 C 11,6 C 49 % 0 % 1020 hPa 0,0 l/m 12,1 km/h (2 Bft) 0,00 h
08.05.2011 23:00 21,0 C 11,6 C 11,0 C 53 % 0 % 1020 hPa 0,0 l/m 12,2 km/h (2 Bft) 0,00 h
Min-Datum _ 05.05.11 04.05.11 04.05.11 04.05.11 - 03.05.11 - 02.05.11 -
_ Min-Zeit 05:25 06:19 01:52 17:43 - 04:10 - 00:00 -
Minimum _ 16,8 C 0,5 C 5,7 C 20 % - 996 hPa - 0,0 km/h (0 Bft) -
Max-Datum _ 03.05.11 07.05.11 07.05.11 02.05.11 02.05.11 08.05.11 03.05.11 04.05.11 03.05.11
_ Max-Zeit 21:16 17:07 15:07 07:55 00:00 21:19 08:25 16:49 06:01
Maximum _ 22,6 C 22,9 C 21,7 C 99 % 0 % 1020 hPa 2,7 l/m 40,1 km/h
NW (6 Bft)
0,05 h
Durchschnitt _ 21,4 C 11,5 C 11,8 C 53 % #0 min. 1012 hPa #6,2 l/m 6,4 km/h (2 Bft) #3:54 h